createdAt,value
2023-03-07T00:00:03.687Z,988.01
2023-03-07T00:00:33.535Z,988.01
2023-03-07T00:01:05.509Z,987.81
2023-03-07T00:01:38.344Z,987.81
2023-03-07T00:02:09.536Z,987.91
2023-03-07T00:02:35.439Z,987.81
2023-03-07T00:02:57.547Z,987.81
2023-03-07T00:03:29.527Z,987.81
2023-03-07T00:04:01.566Z,988.01
2023-03-07T00:04:33.577Z,988.01
2023-03-07T00:05:05.749Z,987.91
2023-03-07T00:05:34.786Z,987.91
2023-03-07T00:05:53.754Z,987.91
2023-03-07T00:06:25.512Z,987.91
2023-03-07T00:06:42.672Z,987.81
2023-03-07T00:07:13.999Z,987.81
2023-03-07T00:07:35.358Z,987.91
2023-03-07T00:08:02.354Z,987.91
2023-03-07T00:08:33.499Z,987.91
2023-03-07T00:09:05.538Z,987.91
2023-03-07T00:09:35.092Z,987.74
2023-03-07T00:09:53.523Z,987.74
2023-03-07T00:10:25.801Z,987.74
2023-03-07T00:10:42.655Z,988.01
2023-03-07T00:11:14.583Z,988.01
2023-03-07T00:11:35.316Z,987.81
2023-03-07T00:12:01.500Z,987.81
2023-03-07T00:12:33.516Z,987.81
2023-03-07T00:13:05.481Z,987.74
2023-03-07T00:13:34.803Z,987.81
2023-03-07T00:13:53.507Z,987.81
2023-03-07T00:14:26.248Z,987.81
2023-03-07T00:14:42.767Z,987.74
2023-03-07T00:15:14.498Z,987.74
2023-03-07T00:15:35.286Z,987.91
2023-03-07T00:16:02.998Z,987.91
2023-03-07T00:16:34.329Z,987.91
2023-03-07T00:17:05.526Z,987.91
2023-03-07T00:17:38.345Z,987.91
2023-03-07T00:18:09.826Z,987.81
2023-03-07T00:18:34.761Z,987.91
2023-03-07T00:18:57.498Z,987.91
2023-03-07T00:19:29.488Z,987.91
2023-03-07T00:20:03.118Z,987.91
2023-03-07T00:20:33.693Z,987.91
2023-03-07T00:21:05.508Z,988.01
2023-03-07T00:21:35.371Z,987.91
2023-03-07T00:21:53.547Z,987.91
2023-03-07T00:22:25.507Z,987.91
2023-03-07T00:22:43.732Z,987.91
2023-03-07T00:23:14.000Z,987.91
2023-03-07T00:23:35.686Z,987.91
2023-03-07T00:24:02.234Z,987.91
2023-03-07T00:24:33.492Z,987.91
2023-03-07T00:25:05.834Z,987.91
2023-03-07T00:25:34.766Z,987.91
2023-03-07T00:25:53.766Z,987.91
2023-03-07T00:26:25.510Z,987.91
2023-03-07T00:26:42.596Z,987.74
2023-03-07T00:27:14.509Z,987.74
2023-03-07T00:27:35.265Z,987.74
2023-03-07T00:28:01.518Z,987.74
2023-03-07T00:28:33.500Z,987.74
2023-03-07T00:29:05.473Z,987.81
2023-03-07T00:29:34.864Z,987.81
2023-03-07T00:29:53.532Z,987.81
2023-03-07T00:30:26.750Z,987.81
2023-03-07T00:30:42.777Z,987.74
2023-03-07T00:31:14.053Z,987.74
2023-03-07T00:31:35.326Z,987.81
2023-03-07T00:32:01.602Z,987.81
2023-03-07T00:32:33.624Z,987.81
2023-03-07T00:33:05.497Z,987.74
2023-03-07T00:33:38.423Z,987.74
2023-03-07T00:34:09.631Z,987.64
2023-03-07T00:34:34.765Z,987.64
2023-03-07T00:34:57.505Z,987.64
2023-03-07T00:35:29.745Z,987.64
2023-03-07T00:36:01.556Z,987.64
2023-03-07T00:36:33.513Z,987.64
2023-03-07T00:37:05.479Z,987.81
2023-03-07T00:37:34.766Z,987.44
2023-03-07T00:37:53.542Z,987.44
2023-03-07T00:38:25.530Z,987.44
2023-03-07T00:38:42.666Z,987.74
2023-03-07T00:39:14.054Z,987.74
2023-03-07T00:39:35.271Z,987.74
2023-03-07T00:40:03.323Z,987.74
2023-03-07T00:40:33.819Z,987.74
2023-03-07T00:41:05.522Z,987.54
2023-03-07T00:41:34.806Z,987.54
2023-03-07T00:41:53.506Z,987.54
2023-03-07T00:42:25.489Z,987.54
2023-03-07T00:42:42.636Z,987.54
2023-03-07T00:43:14.488Z,987.54
2023-03-07T00:43:35.279Z,987.64
2023-03-07T00:44:01.487Z,987.64
2023-03-07T00:44:33.513Z,987.64
2023-03-07T00:45:06.286Z,987.74
2023-03-07T00:45:34.869Z,987.64
2023-03-07T00:45:53.819Z,987.64
2023-03-07T00:46:25.716Z,987.64
2023-03-07T00:46:42.662Z,987.54
2023-03-07T00:47:14.097Z,987.54
2023-03-07T00:47:35.785Z,987.54
2023-03-07T00:48:01.516Z,987.54
2023-03-07T00:48:33.567Z,987.54
2023-03-07T00:49:05.544Z,987.64
2023-03-07T00:49:34.784Z,987.54
2023-03-07T00:49:53.546Z,987.54
2023-03-07T00:50:25.779Z,987.54
2023-03-07T00:50:42.610Z,987.54
2023-03-07T00:51:14.065Z,987.54
2023-03-07T00:51:35.376Z,987.33
2023-03-07T00:52:01.522Z,987.33
2023-03-07T00:52:33.506Z,987.33
2023-03-07T00:53:05.502Z,987.64
2023-03-07T00:53:34.760Z,987.54
2023-03-07T00:53:53.556Z,987.54
2023-03-07T00:54:25.490Z,987.54
2023-03-07T00:54:43.717Z,987.54
2023-03-07T00:55:14.346Z,987.54
2023-03-07T00:55:35.300Z,987.54
2023-03-07T00:56:01.566Z,987.54
2023-03-07T00:56:34.391Z,987.54
2023-03-07T00:57:05.527Z,987.44
2023-03-07T00:57:34.822Z,987.33
2023-03-07T00:57:54.226Z,987.33
2023-03-07T00:58:25.514Z,987.33
2023-03-07T00:58:42.656Z,987.44
2023-03-07T00:59:14.051Z,987.44
2023-03-07T00:59:35.266Z,987.33
2023-03-07T01:00:03.562Z,987.33
2023-03-07T01:00:33.542Z,987.33
2023-03-07T01:01:06.367Z,987.64
2023-03-07T01:01:34.782Z,987.33
2023-03-07T01:01:53.566Z,987.33
2023-03-07T01:02:25.514Z,987.33
2023-03-07T01:02:42.647Z,987.13
2023-03-07T01:03:14.049Z,987.13
2023-03-07T01:03:35.259Z,987.23
2023-03-07T01:04:01.588Z,987.23
2023-03-07T01:04:33.644Z,987.23
2023-03-07T01:05:05.808Z,987.44
2023-03-07T01:05:34.793Z,987.44
2023-03-07T01:05:53.807Z,987.44
2023-03-07T01:06:25.563Z,987.44
2023-03-07T01:06:43.045Z,987.44
2023-03-07T01:07:14.047Z,987.44
2023-03-07T01:07:35.269Z,987.33
2023-03-07T01:08:01.538Z,987.33
2023-03-07T01:08:33.534Z,987.33
2023-03-07T01:09:05.500Z,987.33
2023-03-07T01:09:34.765Z,987.13
2023-03-07T01:09:53.540Z,987.13
2023-03-07T01:10:25.852Z,987.13
2023-03-07T01:10:43.152Z,987.23
2023-03-07T01:11:14.001Z,987.23
2023-03-07T01:11:35.862Z,987.23
2023-03-07T01:12:01.533Z,987.23
2023-03-07T01:12:33.548Z,987.23
2023-03-07T01:13:05.662Z,987.44
2023-03-07T01:13:34.799Z,986.93
2023-03-07T01:13:53.540Z,986.93
2023-03-07T01:14:25.522Z,986.93
2023-03-07T01:14:43.269Z,987.23
2023-03-07T01:15:14.616Z,987.23
2023-03-07T01:15:35.585Z,987.13
2023-03-07T01:16:02.981Z,987.13
2023-03-07T01:16:33.597Z,987.13
2023-03-07T01:17:06.333Z,987.03
2023-03-07T01:17:35.344Z,987.13
2023-03-07T01:17:53.538Z,987.13
2023-03-07T01:18:25.547Z,987.13
2023-03-07T01:18:42.653Z,987.23
2023-03-07T01:19:14.035Z,987.23
2023-03-07T01:19:35.270Z,987.03
2023-03-07T01:20:03.575Z,987.03
2023-03-07T01:20:33.573Z,987.03
2023-03-07T01:21:05.545Z,986.83
2023-03-07T01:21:35.344Z,987.13
2023-03-07T01:21:53.813Z,987.13
2023-03-07T01:22:25.501Z,987.13
2023-03-07T01:22:42.661Z,987.13
2023-03-07T01:23:14.074Z,987.13
2023-03-07T01:23:35.286Z,987.23
2023-03-07T01:24:01.547Z,987.23
2023-03-07T01:24:34.112Z,987.23
2023-03-07T01:25:05.809Z,987.23
2023-03-07T01:25:34.774Z,987.13
2023-03-07T01:25:53.856Z,987.13
2023-03-07T01:26:25.529Z,987.13
2023-03-07T01:26:43.251Z,987.03
2023-03-07T01:27:14.046Z,987.03
2023-03-07T01:27:35.256Z,986.93
2023-03-07T01:28:01.548Z,986.93
2023-03-07T01:28:33.563Z,986.93
2023-03-07T01:29:05.547Z,987.13
2023-03-07T01:29:34.799Z,986.93
2023-03-07T01:29:53.496Z,986.93
2023-03-07T01:30:26.006Z,986.93
2023-03-07T01:30:42.705Z,987.03
2023-03-07T01:31:14.107Z,987.03
2023-03-07T01:31:35.726Z,986.83
2023-03-07T01:32:01.611Z,986.83
2023-03-07T01:32:33.636Z,986.83
2023-03-07T01:33:06.308Z,986.93
2023-03-07T01:33:34.765Z,987.13
2023-03-07T01:33:53.565Z,987.13
2023-03-07T01:34:25.529Z,987.13
2023-03-07T01:34:42.697Z,986.83
2023-03-07T01:35:14.393Z,986.83
2023-03-07T01:35:35.691Z,986.93
2023-03-07T01:36:01.677Z,986.93
2023-03-07T01:36:33.638Z,986.93
2023-03-07T01:37:05.528Z,986.93
2023-03-07T01:37:34.760Z,986.93
2023-03-07T01:37:53.534Z,986.93
2023-03-07T01:38:25.505Z,986.93
2023-03-07T01:38:42.968Z,987.03
2023-03-07T01:39:14.049Z,987.03
2023-03-07T01:39:35.262Z,986.83
2023-03-07T01:40:03.177Z,986.83
2023-03-07T01:40:33.820Z,986.83
2023-03-07T01:41:08.412Z,986.83
2023-03-07T01:41:34.929Z,987.03
2023-03-07T01:41:53.766Z,987.03
2023-03-07T01:42:25.545Z,987.03
2023-03-07T01:42:43.983Z,986.93
2023-03-07T01:43:14.305Z,986.93
2023-03-07T01:43:35.618Z,986.93
2023-03-07T01:44:02.519Z,986.93
2023-03-07T01:44:34.245Z,986.93
2023-03-07T01:45:06.309Z,987.03
2023-03-07T01:45:35.176Z,986.52
2023-03-07T01:46:09.906Z,986.52
2023-03-07T01:46:35.030Z,986.72
2023-03-07T01:46:57.739Z,986.72
2023-03-07T01:47:29.755Z,986.72
2023-03-07T01:48:01.864Z,986.83
2023-03-07T01:48:33.816Z,986.83
2023-03-07T01:49:06.399Z,986.83
2023-03-07T01:49:34.909Z,986.83
2023-03-07T01:49:54.109Z,986.83
2023-03-07T01:50:25.970Z,986.83
2023-03-07T01:50:42.996Z,986.93
2023-03-07T01:51:14.334Z,986.93
2023-03-07T01:51:35.412Z,986.83
2023-03-07T01:52:01.627Z,986.83
2023-03-07T01:52:33.691Z,986.83
2023-03-07T01:53:05.940Z,986.72
2023-03-07T01:53:34.845Z,986.72
2023-03-07T01:53:53.608Z,986.72
2023-03-07T01:54:25.619Z,986.72
2023-03-07T01:54:42.836Z,986.62
2023-03-07T01:55:14.560Z,986.62
2023-03-07T01:55:35.373Z,986.83
2023-03-07T01:56:01.652Z,986.83
2023-03-07T01:56:34.219Z,986.83
2023-03-07T01:57:05.658Z,986.62
2023-03-07T01:57:34.885Z,986.62
2023-03-07T01:57:53.697Z,986.62
2023-03-07T01:58:25.594Z,986.62
2023-03-07T01:58:43.356Z,986.72
2023-03-07T01:59:14.133Z,986.72
2023-03-07T01:59:35.350Z,986.62
2023-03-07T02:00:03.812Z,986.62
2023-03-07T02:00:33.670Z,986.62
2023-03-07T02:01:05.683Z,986.62
2023-03-07T02:01:34.914Z,986.62
2023-03-07T02:01:53.609Z,986.62
2023-03-07T02:02:25.612Z,986.62
2023-03-07T02:02:42.710Z,986.72
2023-03-07T02:03:14.170Z,986.72
2023-03-07T02:03:35.323Z,986.83
2023-03-07T02:04:01.651Z,986.83
2023-03-07T02:04:33.654Z,986.83
2023-03-07T02:05:06.752Z,986.62
2023-03-07T02:05:34.805Z,986.62
2023-03-07T02:05:53.874Z,986.62
2023-03-07T02:06:25.652Z,986.62
2023-03-07T02:06:42.861Z,986.52
2023-03-07T02:07:14.186Z,986.52
2023-03-07T02:07:35.353Z,986.62
2023-03-07T02:08:01.648Z,986.62
2023-03-07T02:08:33.618Z,986.62
2023-03-07T02:09:05.582Z,986.62
2023-03-07T02:09:34.830Z,986.72
2023-03-07T03:34:02.291Z,986.01
2023-03-07T03:34:25.624Z,986.01
2023-03-07T03:34:42.790Z,985.91
2023-03-07T03:35:14.432Z,985.91
2023-03-07T03:35:35.358Z,985.71
2023-03-07T03:36:01.668Z,985.71
2023-03-07T03:36:33.660Z,985.71
2023-03-07T03:37:06.362Z,985.91
2023-03-07T03:37:34.761Z,985.81
2023-03-07T03:37:53.609Z,985.81
2023-03-07T03:38:25.654Z,985.81
2023-03-07T03:38:42.804Z,985.81
2023-03-07T03:39:13.967Z,985.81
2023-03-07T03:39:35.316Z,985.71
2023-03-07T03:40:03.371Z,985.71
2023-03-07T03:40:33.607Z,985.71
2023-03-07T03:41:05.629Z,985.91
2023-03-07T03:41:34.803Z,985.81
2023-03-07T03:41:53.629Z,985.81
2023-03-07T03:42:25.690Z,985.81
2023-03-07T03:42:42.786Z,985.91
2023-03-07T03:43:14.111Z,985.91
2023-03-07T03:43:35.299Z,985.71
2023-03-07T03:44:01.679Z,985.71
2023-03-07T03:44:33.673Z,985.71
2023-03-07T03:45:06.161Z,985.81
2023-03-07T03:45:35.545Z,985.91
2023-03-07T03:45:53.912Z,985.91
2023-03-07T03:46:25.699Z,985.91
2023-03-07T03:46:43.465Z,985.71
2023-03-07T03:47:14.182Z,985.71
2023-03-07T03:47:35.810Z,985.81
2023-03-07T03:48:01.643Z,985.81
2023-03-07T03:48:33.623Z,985.81
2023-03-07T03:49:05.699Z,985.71
2023-03-07T03:49:34.774Z,985.81
2023-03-07T03:49:54.352Z,985.81
2023-03-07T03:50:35.139Z,985.81
2023-03-07T03:50:58.414Z,985.81
2023-03-07T03:51:29.853Z,985.81
2023-03-07T03:52:01.681Z,985.81
2023-03-07T03:52:33.636Z,985.81
2023-03-07T03:53:06.335Z,985.71
2023-03-07T03:53:34.797Z,986.01
2023-03-07T03:53:53.624Z,986.01
2023-03-07T03:54:25.677Z,986.01
2023-03-07T03:54:42.843Z,985.91
2023-03-07T03:55:14.481Z,985.91
2023-03-07T03:55:35.261Z,985.71
2023-03-07T03:56:01.650Z,985.71
2023-03-07T03:56:33.617Z,985.71
2023-03-07T03:57:05.641Z,985.71
2023-03-07T03:57:34.904Z,985.71
2023-03-07T03:57:53.631Z,985.71
2023-03-07T03:58:25.653Z,985.71
2023-03-07T03:58:42.780Z,985.71
2023-03-07T03:59:13.688Z,985.71
2023-03-07T03:59:35.302Z,985.71
2023-03-07T04:00:04.128Z,985.71
2023-03-07T04:00:33.750Z,985.71
2023-03-07T04:01:05.649Z,985.71
2023-03-07T04:01:34.876Z,985.64
2023-03-07T04:01:53.745Z,985.64
2023-03-07T04:02:25.688Z,985.64
2023-03-07T04:02:43.586Z,985.64
2023-03-07T04:03:14.101Z,985.64
2023-03-07T04:03:35.298Z,985.54
2023-03-07T04:04:01.695Z,985.54
2023-03-07T04:04:33.629Z,985.54
2023-03-07T04:05:06.210Z,985.81
2023-03-07T04:05:34.783Z,985.64
2023-03-07T04:06:10.145Z,985.64
2023-03-07T04:06:34.762Z,985.64
2023-03-07T04:06:58.114Z,985.64
2023-03-07T04:07:29.860Z,985.64
2023-03-07T04:08:01.682Z,985.64
2023-03-07T04:08:33.642Z,985.64
2023-03-07T04:09:05.763Z,985.64
2023-03-07T04:09:38.363Z,985.71
2023-03-07T04:10:10.022Z,985.71
2023-03-07T04:10:34.786Z,985.54
2023-03-07T04:10:57.979Z,985.54
2023-03-07T04:11:29.960Z,985.54
2023-03-07T04:12:01.667Z,985.54
2023-03-07T04:12:33.639Z,985.54
2023-03-07T04:13:05.622Z,985.81
2023-03-07T04:13:34.784Z,985.71
2023-03-07T04:13:53.694Z,985.71
2023-03-07T04:14:29.986Z,985.71
2023-03-07T04:14:57.687Z,985.64
2023-03-07T04:15:30.518Z,985.64
2023-03-07T04:16:18.242Z,985.54
2023-03-07T04:16:40.242Z,985.71
2023-03-07T04:17:05.660Z,985.71
2023-03-07T04:17:34.779Z,985.54
2023-03-07T04:17:53.654Z,985.54
2023-03-07T04:18:25.649Z,985.54
2023-03-07T04:18:42.754Z,985.71
2023-03-07T04:19:13.735Z,985.71
2023-03-07T04:19:35.584Z,985.54
2023-03-07T04:20:03.222Z,985.54
2023-03-07T04:20:33.690Z,985.54
2023-03-07T04:21:05.642Z,985.64
2023-03-07T04:21:34.780Z,985.54
2023-03-07T04:21:53.672Z,985.54
2023-03-07T04:22:26.631Z,985.54
2023-03-07T04:22:59.914Z,985.71
2023-03-07T04:23:29.931Z,985.71
2023-03-07T04:24:01.696Z,985.71
2023-03-07T04:24:35.654Z,985.71
2023-03-07T04:25:06.020Z,985.54
2023-03-07T04:25:34.790Z,985.81
2023-03-07T04:25:55.838Z,985.81
2023-03-07T04:26:25.681Z,985.81
2023-03-07T04:26:42.764Z,985.54
2023-03-07T04:27:13.766Z,985.54
2023-03-07T04:27:35.311Z,985.54
2023-03-07T04:28:01.671Z,985.54
2023-03-07T04:28:33.654Z,985.54
2023-03-07T04:29:05.665Z,985.64
2023-03-07T04:29:35.474Z,985.54
2023-03-07T04:29:53.662Z,985.54
2023-03-07T04:30:26.245Z,985.54
2023-03-07T04:30:42.809Z,985.64
2023-03-07T04:31:13.691Z,985.64
2023-03-07T04:31:35.369Z,985.44
2023-03-07T04:32:01.736Z,985.44
2023-03-07T04:32:35.707Z,985.44
2023-03-07T04:33:05.760Z,985.54
2023-03-07T04:33:35.178Z,985.23
2023-03-07T04:33:53.632Z,985.23
2023-03-07T04:34:25.637Z,985.23
2023-03-07T04:34:42.764Z,985.54
2023-03-07T04:35:14.438Z,985.54
2023-03-07T04:35:36.236Z,985.44
2023-03-07T04:36:33.680Z,985.44
2023-03-07T04:37:05.661Z,985.44
2023-03-07T04:37:34.759Z,985.34
2023-03-07T04:37:53.675Z,985.34
2023-03-07T04:38:25.634Z,985.34
2023-03-07T04:38:44.391Z,985.34
2023-03-07T04:39:13.748Z,985.34
2023-03-07T04:39:35.375Z,985.34
2023-03-07T04:40:03.441Z,985.34
2023-03-07T04:40:33.657Z,985.34
2023-03-07T04:41:05.672Z,985.23
2023-03-07T04:41:34.763Z,985.34
2023-03-07T04:41:54.525Z,985.34
2023-03-07T04:42:42.806Z,985.54
2023-03-07T04:43:13.724Z,985.54
2023-03-07T04:43:35.263Z,985.34
2023-03-07T04:44:01.688Z,985.34
2023-03-07T04:44:33.693Z,985.34
2023-03-07T04:45:07.195Z,985.34
2023-03-07T04:45:34.884Z,985.34
2023-03-07T04:45:53.948Z,985.34
2023-03-07T04:46:25.977Z,985.34
2023-03-07T04:46:58.215Z,985.54
2023-03-07T04:47:30.024Z,985.54
2023-03-07T04:48:01.728Z,985.44
2023-03-07T04:48:33.702Z,985.44
2023-03-07T04:49:05.650Z,985.23
2023-03-07T04:49:34.792Z,985.23
2023-03-07T04:49:53.639Z,985.23
2023-03-07T04:50:26.047Z,985.23
2023-03-07T04:50:42.766Z,985.34
2023-03-07T04:51:13.681Z,985.34
2023-03-07T04:51:35.286Z,985.34
2023-03-07T04:52:01.669Z,985.34
2023-03-07T04:52:33.673Z,985.34
2023-03-07T04:53:05.718Z,985.13
2023-03-07T04:53:34.765Z,985.34
2023-03-07T04:53:53.714Z,985.34
2023-03-07T04:54:25.683Z,985.34
2023-03-07T04:54:43.287Z,985.44
2023-03-07T04:55:14.364Z,985.44
2023-03-07T04:55:35.300Z,985.13
2023-03-07T04:56:01.702Z,985.13
2023-03-07T04:56:33.691Z,985.13
2023-03-07T04:57:05.683Z,985.54
2023-03-07T04:57:35.382Z,985.44
2023-03-07T04:57:54.443Z,985.44
2023-03-07T04:58:25.683Z,985.44
2023-03-07T04:58:42.779Z,985.23
2023-03-07T04:59:13.710Z,985.23
2023-03-07T04:59:35.284Z,985.34
2023-03-07T05:00:03.820Z,985.34
2023-03-07T05:00:33.712Z,985.34
2023-03-07T05:01:06.480Z,985.34
2023-03-07T05:01:34.810Z,985.23
2023-03-07T05:01:53.639Z,985.23
2023-03-07T05:02:25.165Z,985.23
2023-03-07T05:02:42.356Z,985.23
2023-03-07T05:03:13.211Z,985.23
2023-03-07T05:03:34.798Z,985.44
2023-03-07T05:04:01.267Z,985.44
2023-03-07T05:04:33.321Z,985.44
2023-03-07T05:05:05.634Z,985.23
2023-03-07T05:05:36.630Z,985.13
2023-03-07T05:05:53.440Z,985.13
2023-03-07T05:06:26.101Z,985.13
2023-03-07T05:06:42.867Z,985.23
2023-03-07T05:07:14.003Z,985.23
2023-03-07T05:07:37.228Z,985.44
2023-03-07T05:08:01.674Z,985.44
2023-03-07T05:08:33.662Z,985.44
2023-03-07T05:09:05.626Z,985.44
2023-03-07T05:09:34.736Z,985.23
2023-03-07T05:09:53.692Z,985.23
2023-03-07T05:10:25.974Z,985.23
2023-03-07T05:10:43.351Z,985.13
2023-03-07T05:11:13.706Z,985.13
2023-03-07T05:11:36.610Z,985.23
2023-03-07T05:12:01.705Z,985.23
2023-03-07T05:12:33.713Z,985.23
2023-03-07T05:13:05.710Z,985.23
2023-03-07T05:13:35.398Z,985.34
2023-03-07T05:13:54.516Z,985.34
2023-03-07T05:14:25.639Z,985.34
2023-03-07T05:14:42.780Z,985.23
2023-03-07T05:15:14.223Z,985.23
2023-03-07T05:15:35.392Z,985.23
2023-03-07T05:16:03.323Z,985.23
2023-03-07T05:16:33.662Z,985.23
2023-03-07T05:17:06.456Z,985.23
2023-03-07T05:17:35.044Z,985.03
2023-03-07T05:17:53.686Z,985.03
2023-03-07T05:18:25.757Z,985.03
2023-03-07T05:18:58.049Z,985.03
2023-03-07T05:19:29.688Z,985.03
2023-03-07T05:20:03.671Z,985.13
2023-03-07T05:20:33.678Z,985.13
2023-03-07T05:21:05.653Z,985.03
2023-03-07T05:21:34.731Z,984.83
2023-03-07T05:21:53.689Z,984.83
2023-03-07T05:22:25.640Z,984.83
2023-03-07T05:22:42.739Z,985.34
2023-03-07T05:23:13.658Z,985.34
2023-03-07T05:23:35.233Z,985.44
2023-03-07T05:24:01.687Z,985.44
2023-03-07T05:24:33.655Z,985.44
2023-03-07T05:25:05.931Z,985.13
2023-03-07T05:25:34.729Z,985.13
2023-03-07T05:25:53.942Z,985.13
2023-03-07T05:26:25.660Z,985.13
2023-03-07T05:26:43.387Z,985.03
2023-03-07T05:27:13.642Z,985.03
2023-03-07T05:27:35.235Z,984.93
2023-03-07T05:28:01.774Z,984.93
2023-03-07T05:28:34.163Z,984.93
2023-03-07T05:29:05.686Z,985.03
2023-03-07T05:29:34.784Z,985.23
2023-03-07T05:29:54.413Z,985.23
2023-03-07T05:30:26.163Z,985.23
2023-03-07T05:30:42.798Z,985.13
2023-03-07T05:31:13.781Z,985.13
2023-03-07T05:31:35.262Z,985.23
2023-03-07T05:32:01.713Z,985.23
2023-03-07T05:32:33.730Z,985.23
2023-03-07T05:33:06.371Z,985.03
2023-03-07T05:33:34.759Z,985.13
2023-03-07T05:33:53.651Z,985.13
2023-03-07T05:34:25.697Z,985.13
2023-03-07T05:34:57.727Z,985.13
2023-03-07T05:35:30.540Z,985.13
2023-03-07T05:36:01.725Z,985.34
2023-03-07T05:36:33.694Z,985.34
2023-03-07T05:37:05.682Z,985.03
2023-03-07T05:37:34.745Z,985.13
2023-03-07T05:37:53.666Z,985.13
2023-03-07T05:38:25.650Z,985.13
2023-03-07T05:38:42.792Z,985.13
2023-03-07T05:39:13.694Z,985.13
2023-03-07T05:39:35.243Z,985.03
2023-03-07T05:40:03.483Z,985.03
2023-03-07T05:40:34.060Z,985.03
2023-03-07T05:41:05.640Z,985.03
2023-03-07T05:41:35.237Z,985.03
2023-03-07T05:41:53.704Z,985.03
2023-03-07T05:42:25.681Z,985.03
2023-03-07T05:42:44.451Z,985.03
2023-03-07T05:43:13.641Z,985.03
2023-03-07T05:43:35.233Z,985.03
2023-03-07T05:44:01.690Z,985.03
2023-03-07T05:44:34.250Z,985.03
2023-03-07T05:45:06.181Z,984.93
2023-03-07T05:45:35.449Z,985.03
2023-03-07T05:45:54.788Z,985.03
2023-03-07T05:46:25.739Z,985.03
2023-03-07T05:46:42.800Z,985.13
2023-03-07T05:47:13.665Z,985.13
2023-03-07T05:47:35.232Z,984.93
2023-03-07T05:48:01.654Z,984.93
2023-03-07T05:48:34.382Z,984.93
2023-03-07T05:49:06.488Z,985.13
2023-03-07T05:49:34.742Z,985.03
2023-03-07T05:49:53.722Z,985.03
2023-03-07T05:50:26.019Z,985.03
2023-03-07T05:50:57.683Z,985.13
2023-03-07T05:51:29.745Z,985.13
2023-03-07T05:52:01.716Z,985.03
2023-03-07T05:52:33.728Z,985.03
2023-03-07T05:53:05.666Z,984.83
2023-03-07T05:53:34.731Z,984.83
2023-03-07T05:53:53.664Z,984.83
2023-03-07T05:54:25.635Z,984.83
2023-03-07T05:54:57.689Z,984.93
2023-03-07T05:55:31.243Z,984.93
2023-03-07T05:56:01.648Z,984.83
2023-03-07T05:56:33.697Z,984.83
2023-03-07T05:57:05.644Z,984.83
2023-03-07T05:57:34.751Z,984.73
2023-03-07T05:57:53.703Z,984.73
2023-03-07T05:58:25.691Z,984.73
2023-03-07T05:58:43.513Z,984.83
2023-03-07T05:59:13.652Z,984.83
2023-03-07T05:59:35.557Z,984.83
2023-03-07T06:00:03.906Z,984.83
2023-03-07T06:00:33.712Z,984.83
2023-03-07T06:01:05.684Z,984.73
2023-03-07T06:01:34.721Z,984.62
2023-03-07T06:01:54.511Z,984.62
2023-03-07T06:02:25.692Z,984.62
2023-03-07T06:02:57.752Z,984.73
2023-03-07T06:03:29.722Z,984.73
2023-03-07T06:04:01.741Z,984.83
2023-03-07T06:04:33.668Z,984.83
2023-03-07T06:05:07.112Z,984.83
2023-03-07T06:05:34.727Z,984.73
2023-03-07T06:05:53.908Z,984.73
2023-03-07T06:06:25.834Z,984.73
2023-03-07T06:06:57.711Z,984.73
2023-03-07T06:07:29.732Z,984.73
2023-03-07T06:08:01.682Z,984.83
2023-03-07T06:08:33.978Z,984.83
2023-03-07T06:09:05.733Z,984.73
2023-03-07T06:09:34.888Z,984.62
2023-03-07T06:09:53.780Z,984.62
2023-03-07T06:10:26.113Z,984.62
2023-03-07T06:10:58.115Z,984.93
2023-03-07T06:11:32.537Z,984.93
2023-03-07T06:12:01.824Z,984.62
2023-03-07T06:12:33.822Z,984.62
2023-03-07T06:13:05.815Z,984.52
2023-03-07T06:13:34.879Z,984.42
2023-03-07T06:13:53.831Z,984.42
2023-03-07T06:14:25.774Z,984.42
2023-03-07T06:14:43.548Z,984.73
2023-03-07T06:15:14.365Z,984.73
2023-03-07T06:15:35.501Z,984.73
2023-03-07T06:16:03.654Z,984.73
2023-03-07T06:16:33.800Z,984.73
2023-03-07T06:17:05.838Z,984.52
2023-03-07T06:17:35.538Z,984.62
2023-03-07T06:17:54.646Z,984.62
2023-03-07T06:18:25.828Z,984.62
2023-03-07T06:18:57.801Z,984.93
2023-03-07T06:19:29.868Z,984.93
2023-03-07T06:20:03.828Z,984.83
2023-03-07T06:20:33.815Z,984.83
2023-03-07T06:21:22.314Z,984.52
2023-03-07T06:21:39.977Z,984.83
2023-03-07T06:22:09.881Z,984.83
2023-03-07T06:22:34.914Z,984.62
2023-03-07T06:22:57.827Z,984.62
2023-03-07T06:23:29.880Z,984.62
2023-03-07T06:24:01.803Z,984.83
2023-03-07T06:24:33.858Z,984.83
2023-03-07T06:25:06.169Z,984.52
2023-03-07T06:25:34.898Z,984.93
2023-03-07T06:25:54.067Z,984.93
2023-03-07T06:26:25.788Z,984.93
2023-03-07T06:26:57.795Z,984.73
2023-03-07T06:27:29.817Z,984.73
2023-03-07T06:28:02.448Z,984.62
2023-03-07T06:28:34.452Z,984.62
2023-03-07T06:29:05.807Z,984.73
2023-03-07T06:29:35.347Z,984.73
2023-03-07T06:29:53.878Z,984.73
2023-03-07T06:30:26.396Z,984.73
2023-03-07T06:30:57.843Z,984.73
2023-03-07T06:31:29.841Z,984.73
2023-03-07T06:32:01.830Z,984.83
2023-03-07T06:32:33.914Z,984.83
2023-03-07T06:33:05.808Z,984.52
2023-03-07T06:33:34.888Z,984.73
2023-03-07T06:33:55.026Z,984.73
2023-03-07T06:34:26.428Z,984.73
2023-03-07T06:34:42.861Z,984.62
2023-03-07T06:35:14.175Z,984.62
2023-03-07T06:35:35.378Z,984.52
2023-03-07T06:36:01.883Z,984.52
2023-03-07T06:36:33.861Z,984.52
2023-03-07T06:37:05.791Z,984.62
2023-03-07T06:37:36.290Z,984.83
2023-03-07T06:37:53.825Z,984.83
2023-03-07T06:38:25.827Z,984.83
2023-03-07T06:38:57.823Z,984.52
2023-03-07T06:39:31.390Z,984.52
2023-03-07T06:40:03.570Z,984.83
2023-03-07T06:40:34.909Z,984.83
2023-03-07T06:41:05.823Z,984.73
2023-03-07T06:41:35.485Z,984.83
2023-03-07T06:41:53.739Z,984.83
2023-03-07T06:42:25.812Z,984.83
2023-03-07T06:42:57.847Z,984.73
2023-03-07T06:43:29.943Z,984.73
2023-03-07T06:44:02.435Z,984.62
2023-03-07T06:44:33.825Z,984.62
2023-03-07T06:45:06.371Z,984.83
2023-03-07T06:45:35.772Z,984.73
2023-03-07T06:45:54.251Z,984.73
2023-03-07T06:46:25.801Z,984.73
2023-03-07T06:46:57.837Z,984.62
2023-03-07T06:47:29.876Z,984.62
2023-03-07T06:48:01.818Z,984.62
2023-03-07T06:48:34.260Z,984.62
2023-03-07T06:49:05.896Z,984.93
2023-03-07T06:49:34.863Z,984.73
2023-03-07T06:49:53.817Z,984.73
2023-03-07T06:50:34.863Z,984.73
2023-03-07T06:50:42.786Z,984.93
2023-03-07T06:51:13.870Z,984.93
2023-03-07T06:51:37.849Z,984.83
2023-03-07T06:52:01.873Z,984.83
2023-03-07T06:52:33.809Z,984.83
2023-03-07T06:53:05.801Z,984.83
2023-03-07T06:53:35.628Z,984.93
2023-03-07T06:53:53.842Z,984.93
2023-03-07T06:54:25.824Z,984.93
2023-03-07T06:54:58.247Z,984.73
2023-03-07T06:55:30.698Z,984.73
2023-03-07T06:56:01.862Z,984.83
2023-03-07T06:56:33.832Z,984.83
2023-03-07T06:57:05.783Z,984.93
2023-03-07T06:57:34.840Z,984.83
2023-03-07T06:57:53.851Z,984.83
2023-03-07T06:58:25.808Z,984.83
2023-03-07T06:58:57.816Z,984.83
2023-03-07T06:59:29.843Z,984.83
2023-03-07T07:00:04.426Z,984.93
2023-03-07T07:00:33.901Z,984.93
2023-03-07T07:01:05.841Z,984.93
2023-03-07T07:01:34.856Z,984.93
2023-03-07T07:01:54.061Z,984.93
2023-03-07T07:02:25.999Z,984.93
2023-03-07T07:02:57.943Z,984.93
2023-03-07T07:03:29.852Z,984.93
2023-03-07T07:04:01.910Z,984.73
2023-03-07T07:04:34.029Z,984.73
2023-03-07T07:05:06.152Z,984.93
2023-03-07T07:05:34.871Z,985.03
2023-03-07T07:05:54.059Z,985.03
2023-03-07T07:06:26.772Z,985.03
2023-03-07T07:06:58.236Z,985.03
2023-03-07T07:07:29.872Z,985.03
2023-03-07T07:08:01.840Z,985.13
2023-03-07T07:08:33.800Z,985.13
2023-03-07T07:09:05.835Z,985.03
2023-03-07T07:09:35.652Z,984.62
2023-03-07T07:09:53.854Z,984.62